sensor_id;sensor_type;location;lat;lon;timestamp;P1;durP1;ratioP1;P2;durP2;ratioP2
75087;SDS011;63664;44.868;40.600;2023-03-24T00:01:19;13.68;;;6.97;;
75087;SDS011;63664;44.868;40.600;2023-03-24T00:03:46;10.40;;;5.72;;
75087;SDS011;63664;44.868;40.600;2023-03-24T00:06:16;9.73;;;5.90;;
75087;SDS011;63664;44.868;40.600;2023-03-24T00:08:46;12.43;;;5.18;;
75087;SDS011;63664;44.868;40.600;2023-03-24T00:11:15;9.27;;;5.70;;
75087;SDS011;63664;44.868;40.600;2023-03-24T00:13:46;11.65;;;5.38;;
75087;SDS011;63664;44.868;40.600;2023-03-24T00:16:17;14.38;;;7.72;;
75087;SDS011;63664;44.868;40.600;2023-03-24T00:18:46;17.27;;;8.13;;
75087;SDS011;63664;44.868;40.600;2023-03-24T00:21:21;10.60;;;5.15;;
75087;SDS011;63664;44.868;40.600;2023-03-24T00:23:52;12.75;;;5.57;;
75087;SDS011;63664;44.868;40.600;2023-03-24T00:26:25;8.82;;;5.07;;
75087;SDS011;63664;44.868;40.600;2023-03-24T00:29:00;6.53;;;4.20;;
75087;SDS011;63664;44.868;40.600;2023-03-24T00:31:26;8.52;;;4.47;;
75087;SDS011;63664;44.868;40.600;2023-03-24T00:33:53;7.65;;;4.93;;
75087;SDS011;63664;44.868;40.600;2023-03-24T00:36:20;5.75;;;3.72;;
75087;SDS011;63664;44.868;40.600;2023-03-24T00:38:49;7.18;;;3.45;;
75087;SDS011;63664;44.868;40.600;2023-03-24T00:41:15;6.18;;;3.53;;
75087;SDS011;63664;44.868;40.600;2023-03-24T00:43:42;4.53;;;2.95;;
75087;SDS011;63664;44.868;40.600;2023-03-24T00:46:10;4.85;;;3.13;;
75087;SDS011;63664;44.868;40.600;2023-03-24T00:48:58;3.47;;;2.53;;
75087;SDS011;63664;44.868;40.600;2023-03-24T00:51:28;8.13;;;3.22;;
75087;SDS011;63664;44.868;40.600;2023-03-24T00:53:59;7.07;;;3.30;;
75087;SDS011;63664;44.868;40.600;2023-03-24T00:56:27;5.20;;;2.85;;
75087;SDS011;63664;44.868;40.600;2023-03-24T00:58:55;5.45;;;3.22;;
75087;SDS011;63664;44.868;40.600;2023-03-24T01:01:25;6.40;;;3.10;;
75087;SDS011;63664;44.868;40.600;2023-03-24T01:03:54;3.30;;;2.25;;
75087;SDS011;63664;44.868;40.600;2023-03-24T01:06:21;4.82;;;2.38;;
75087;SDS011;63664;44.868;40.600;2023-03-24T01:08:49;6.93;;;2.50;;
75087;SDS011;63664;44.868;40.600;2023-03-24T01:11:21;4.00;;;2.30;;
75087;SDS011;63664;44.868;40.600;2023-03-24T01:13:52;5.47;;;2.42;;
75087;SDS011;63664;44.868;40.600;2023-03-24T01:16:24;4.72;;;2.20;;
75087;SDS011;63664;44.868;40.600;2023-03-24T01:18:53;4.35;;;2.30;;
75087;SDS011;63664;44.868;40.600;2023-03-24T01:21:19;4.22;;;2.30;;
75087;SDS011;63664;44.868;40.600;2023-03-24T01:23:50;3.28;;;2.05;;
75087;SDS011;63664;44.868;40.600;2023-03-24T01:26:17;3.63;;;1.85;;
75087;SDS011;63664;44.868;40.600;2023-03-24T01:28:47;3.92;;;2.17;;
75087;SDS011;63664;44.868;40.600;2023-03-24T01:31:15;4.90;;;2.63;;
75087;SDS011;63664;44.868;40.600;2023-03-24T01:33:41;3.75;;;2.58;;
75087;SDS011;63664;44.868;40.600;2023-03-24T01:36:10;7.75;;;4.43;;
75087;SDS011;63664;44.868;40.600;2023-03-24T01:38:39;5.07;;;3.88;;
75087;SDS011;63664;44.868;40.600;2023-03-24T01:41:06;4.50;;;3.35;;
75087;SDS011;63664;44.868;40.600;2023-03-24T01:43:37;8.02;;;3.40;;
75087;SDS011;63664;44.868;40.600;2023-03-24T01:46:18;5.28;;;3.15;;
75087;SDS011;63664;44.868;40.600;2023-03-24T01:51:29;6.10;;;3.80;;
75087;SDS011;63664;44.868;40.600;2023-03-24T01:54:10;13.57;;;7.10;;
75087;SDS011;63664;44.868;40.600;2023-03-24T01:56:53;10.75;;;6.65;;
75087;SDS011;63664;44.868;40.600;2023-03-24T01:59:34;9.18;;;4.50;;
75087;SDS011;63664;44.868;40.600;2023-03-24T02:02:20;10.20;;;5.22;;
75087;SDS011;63664;44.868;40.600;2023-03-24T02:05:01;8.68;;;5.13;;
75087;SDS011;63664;44.868;40.600;2023-03-24T02:10:13;10.90;;;5.95;;
75087;SDS011;63664;44.868;40.600;2023-03-24T02:12:41;11.35;;;6.93;;
75087;SDS011;63664;44.868;40.600;2023-03-24T02:15:10;11.73;;;7.00;;
75087;SDS011;63664;44.868;40.600;2023-03-24T02:23:40;9.00;;;6.38;;
75087;SDS011;63664;44.868;40.600;2023-03-24T02:40:40;10.50;;;5.53;;
75087;SDS011;63664;44.868;40.600;2023-03-24T02:43:37;10.80;;;6.95;;
75087;SDS011;63664;44.868;40.600;2023-03-24T02:48:58;10.00;;;5.30;;
75087;SDS011;63664;44.868;40.600;2023-03-24T02:57:14;9.57;;;6.28;;
75087;SDS011;63664;44.868;40.600;2023-03-24T03:03:54;10.10;;;5.97;;
75087;SDS011;63664;44.868;40.600;2023-03-24T03:06:33;8.07;;;5.85;;
75087;SDS011;63664;44.868;40.600;2023-03-24T03:09:10;9.82;;;5.80;;
75087;SDS011;63664;44.868;40.600;2023-03-24T03:11:41;7.45;;;5.35;;
75087;SDS011;63664;44.868;40.600;2023-03-24T03:15:14;8.77;;;5.82;;
75087;SDS011;63664;44.868;40.600;2023-03-24T03:17:27;9.88;;;6.63;;
75087;SDS011;63664;44.868;40.600;2023-03-24T03:19:59;10.27;;;6.40;;
75087;SDS011;63664;44.868;40.600;2023-03-24T03:22:41;9.43;;;5.95;;
75087;SDS011;63664;44.868;40.600;2023-03-24T03:25:15;8.75;;;5.45;;
75087;SDS011;63664;44.868;40.600;2023-03-24T03:27:50;8.20;;;5.30;;
75087;SDS011;63664;44.868;40.600;2023-03-24T03:30:31;8.07;;;6.10;;
75087;SDS011;63664;44.868;40.600;2023-03-24T03:33:09;8.68;;;5.15;;
75087;SDS011;63664;44.868;40.600;2023-03-24T03:40:56;8.38;;;5.55;;
75087;SDS011;63664;44.868;40.600;2023-03-24T03:43:32;7.07;;;5.05;;
75087;SDS011;63664;44.868;40.600;2023-03-24T03:46:00;6.55;;;4.95;;
75087;SDS011;63664;44.868;40.600;2023-03-24T03:48:35;11.00;;;5.63;;
75087;SDS011;63664;44.868;40.600;2023-03-24T03:51:05;8.98;;;5.45;;
75087;SDS011;63664;44.868;40.600;2023-03-24T03:53:45;8.90;;;5.05;;
75087;SDS011;63664;44.868;40.600;2023-03-24T03:56:29;9.52;;;5.18;;
75087;SDS011;63664;44.868;40.600;2023-03-24T03:59:28;10.05;;;5.63;;
75087;SDS011;63664;44.868;40.600;2023-03-24T04:20:47;13.23;;;4.90;;
75087;SDS011;63664;44.868;40.600;2023-03-24T04:29:22;9.93;;;5.65;;
75087;SDS011;63664;44.868;40.600;2023-03-24T04:31:52;8.38;;;5.55;;
75087;SDS011;63664;44.868;40.600;2023-03-24T04:34:31;8.02;;;4.60;;
75087;SDS011;63664;44.868;40.600;2023-03-24T04:37:27;9.77;;;5.40;;
75087;SDS011;63664;44.868;40.600;2023-03-24T04:40:12;9.25;;;4.90;;
75087;SDS011;63664;44.868;40.600;2023-03-24T04:42:45;11.38;;;5.28;;
75087;SDS011;63664;44.868;40.600;2023-03-24T04:45:20;11.07;;;4.93;;
75087;SDS011;63664;44.868;40.600;2023-03-24T04:48:00;8.55;;;5.45;;
75087;SDS011;63664;44.868;40.600;2023-03-24T04:50:41;7.68;;;4.82;;
75087;SDS011;63664;44.868;40.600;2023-03-24T04:53:22;7.70;;;5.20;;
75087;SDS011;63664;44.868;40.600;2023-03-24T04:56:05;8.15;;;5.43;;
75087;SDS011;63664;44.868;40.600;2023-03-24T04:59:24;7.55;;;4.97;;
75087;SDS011;63664;44.868;40.600;2023-03-24T05:01:54;7.35;;;4.90;;
75087;SDS011;63664;44.868;40.600;2023-03-24T05:04:30;8.27;;;5.22;;
75087;SDS011;63664;44.868;40.600;2023-03-24T05:07:04;9.23;;;5.65;;
75087;SDS011;63664;44.868;40.600;2023-03-24T05:09:36;8.73;;;5.30;;
75087;SDS011;63664;44.868;40.600;2023-03-24T05:12:04;8.82;;;5.07;;
75087;SDS011;63664;44.868;40.600;2023-03-24T05:14:46;7.25;;;4.80;;
75087;SDS011;63664;44.868;40.600;2023-03-24T05:17:15;8.52;;;5.55;;
75087;SDS011;63664;44.868;40.600;2023-03-24T05:19:41;8.98;;;5.40;;
75087;SDS011;63664;44.868;40.600;2023-03-24T05:22:08;9.60;;;5.25;;
75087;SDS011;63664;44.868;40.600;2023-03-24T05:24:37;10.20;;;5.35;;
75087;SDS011;63664;44.868;40.600;2023-03-24T05:27:05;7.32;;;4.65;;
75087;SDS011;63664;44.868;40.600;2023-03-24T05:29:37;6.65;;;4.60;;
75087;SDS011;63664;44.868;40.600;2023-03-24T05:32:04;9.32;;;4.97;;
75087;SDS011;63664;44.868;40.600;2023-03-24T05:34:34;8.82;;;5.47;;
75087;SDS011;63664;44.868;40.600;2023-03-24T05:37:12;11.35;;;5.28;;
75087;SDS011;63664;44.868;40.600;2023-03-24T05:39:44;8.85;;;5.50;;
75087;SDS011;63664;44.868;40.600;2023-03-24T05:42:29;9.43;;;5.38;;
75087;SDS011;63664;44.868;40.600;2023-03-24T05:44:58;14.07;;;6.35;;
75087;SDS011;63664;44.868;40.600;2023-03-24T05:47:26;11.38;;;6.72;;
75087;SDS011;63664;44.868;40.600;2023-03-24T05:49:53;11.05;;;6.40;;
75087;SDS011;63664;44.868;40.600;2023-03-24T05:52:22;15.05;;;6.30;;
75087;SDS011;63664;44.868;40.600;2023-03-24T05:55:01;10.88;;;5.25;;
75087;SDS011;63664;44.868;40.600;2023-03-24T05:57:29;8.60;;;5.55;;
75087;SDS011;63664;44.868;40.600;2023-03-24T06:00:27;11.77;;;5.72;;
75087;SDS011;63664;44.868;40.600;2023-03-24T06:03:07;10.88;;;6.20;;
75087;SDS011;63664;44.868;40.600;2023-03-24T06:05:43;12.15;;;5.60;;
75087;SDS011;63664;44.868;40.600;2023-03-24T06:08:11;9.07;;;6.15;;
75087;SDS011;63664;44.868;40.600;2023-03-24T06:10:41;9.32;;;5.95;;
75087;SDS011;63664;44.868;40.600;2023-03-24T06:13:10;8.93;;;5.60;;
75087;SDS011;63664;44.868;40.600;2023-03-24T06:15:40;8.70;;;5.28;;
75087;SDS011;63664;44.868;40.600;2023-03-24T06:18:43;9.88;;;5.72;;
75087;SDS011;63664;44.868;40.600;2023-03-24T06:21:39;10.13;;;5.65;;
75087;SDS011;63664;44.868;40.600;2023-03-24T06:24:10;8.13;;;4.90;;
75087;SDS011;63664;44.868;40.600;2023-03-24T06:26:40;10.00;;;5.57;;
75087;SDS011;63664;44.868;40.600;2023-03-24T06:29:07;8.30;;;5.88;;
75087;SDS011;63664;44.868;40.600;2023-03-24T06:31:37;9.68;;;5.75;;
75087;SDS011;63664;44.868;40.600;2023-03-24T06:34:04;9.50;;;5.53;;
75087;SDS011;63664;44.868;40.600;2023-03-24T06:36:31;8.30;;;4.97;;
75087;SDS011;63664;44.868;40.600;2023-03-24T06:39:05;6.68;;;4.50;;
75087;SDS011;63664;44.868;40.600;2023-03-24T06:41:33;8.68;;;4.20;;
75087;SDS011;63664;44.868;40.600;2023-03-24T06:44:04;7.32;;;4.60;;
75087;SDS011;63664;44.868;40.600;2023-03-24T06:46:31;7.30;;;5.15;;
75087;SDS011;63664;44.868;40.600;2023-03-24T06:48:57;8.57;;;5.22;;
75087;SDS011;63664;44.868;40.600;2023-03-24T06:51:26;8.93;;;5.18;;
75087;SDS011;63664;44.868;40.600;2023-03-24T06:53:53;8.82;;;6.00;;
75087;SDS011;63664;44.868;40.600;2023-03-24T06:56:21;9.30;;;5.65;;
75087;SDS011;63664;44.868;40.600;2023-03-24T06:58:53;10.48;;;6.38;;
75087;SDS011;63664;44.868;40.600;2023-03-24T07:01:31;9.75;;;6.18;;
75087;SDS011;63664;44.868;40.600;2023-03-24T07:04:04;8.50;;;6.00;;
75087;SDS011;63664;44.868;40.600;2023-03-24T07:07:00;11.82;;;7.05;;
75087;SDS011;63664;44.868;40.600;2023-03-24T07:09:29;8.93;;;5.80;;
75087;SDS011;63664;44.868;40.600;2023-03-24T07:11:57;9.65;;;6.07;;
75087;SDS011;63664;44.868;40.600;2023-03-24T07:14:23;8.95;;;5.80;;
75087;SDS011;63664;44.868;40.600;2023-03-24T07:16:54;12.32;;;6.03;;
75087;SDS011;63664;44.868;40.600;2023-03-24T07:19:29;9.05;;;5.68;;
75087;SDS011;63664;44.868;40.600;2023-03-24T07:22:17;9.73;;;6.20;;
75087;SDS011;63664;44.868;40.600;2023-03-24T07:25:15;9.95;;;6.38;;
75087;SDS011;63664;44.868;40.600;2023-03-24T07:27:58;9.45;;;6.00;;
75087;SDS011;63664;44.868;40.600;2023-03-24T07:30:25;10.85;;;6.68;;
75087;SDS011;63664;44.868;40.600;2023-03-24T07:32:51;11.43;;;6.50;;
75087;SDS011;63664;44.868;40.600;2023-03-24T07:35:21;8.88;;;5.90;;
75087;SDS011;63664;44.868;40.600;2023-03-24T07:37:48;9.30;;;6.20;;
75087;SDS011;63664;44.868;40.600;2023-03-24T07:40:15;7.93;;;5.60;;
75087;SDS011;63664;44.868;40.600;2023-03-24T07:42:45;8.50;;;5.72;;
75087;SDS011;63664;44.868;40.600;2023-03-24T07:45:36;7.80;;;4.70;;
75087;SDS011;63664;44.868;40.600;2023-03-24T07:48:04;8.38;;;5.47;;
75087;SDS011;63664;44.868;40.600;2023-03-24T07:50:34;7.93;;;4.93;;
75087;SDS011;63664;44.868;40.600;2023-03-24T07:53:11;9.27;;;5.20;;
75087;SDS011;63664;44.868;40.600;2023-03-24T07:55:39;10.80;;;5.18;;
75087;SDS011;63664;44.868;40.600;2023-03-24T07:58:18;5.97;;;4.15;;
75087;SDS011;63664;44.868;40.600;2023-03-24T08:01:02;7.63;;;4.80;;
75087;SDS011;63664;44.868;40.600;2023-03-24T08:03:38;7.05;;;3.85;;
75087;SDS011;63664;44.868;40.600;2023-03-24T08:06:24;5.68;;;3.70;;
75087;SDS011;63664;44.868;40.600;2023-03-24T08:09:01;5.38;;;3.80;;
75087;SDS011;63664;44.868;40.600;2023-03-24T08:11:27;8.05;;;3.90;;
75087;SDS011;63664;44.868;40.600;2023-03-24T08:13:53;5.20;;;3.60;;
75087;SDS011;63664;44.868;40.600;2023-03-24T08:16:20;5.55;;;3.97;;
75087;SDS011;63664;44.868;40.600;2023-03-24T08:18:46;7.13;;;4.28;;
75087;SDS011;63664;44.868;40.600;2023-03-24T08:21:16;5.32;;;3.80;;
75087;SDS011;63664;44.868;40.600;2023-03-24T08:23:43;6.13;;;3.80;;
75087;SDS011;63664;44.868;40.600;2023-03-24T08:26:09;3.75;;;3.05;;
75087;SDS011;63664;44.868;40.600;2023-03-24T08:28:35;4.82;;;3.03;;
75087;SDS011;63664;44.868;40.600;2023-03-24T08:31:02;4.63;;;3.17;;
75087;SDS011;63664;44.868;40.600;2023-03-24T08:33:29;8.20;;;3.78;;
75087;SDS011;63664;44.868;40.600;2023-03-24T08:35:56;3.45;;;2.67;;
75087;SDS011;63664;44.868;40.600;2023-03-24T08:38:23;5.55;;;3.17;;
75087;SDS011;63664;44.868;40.600;2023-03-24T08:40:58;3.97;;;2.72;;
75087;SDS011;63664;44.868;40.600;2023-03-24T08:43:32;5.20;;;3.35;;
75087;SDS011;63664;44.868;40.600;2023-03-24T08:46:00;4.97;;;3.08;;
75087;SDS011;63664;44.868;40.600;2023-03-24T08:48:28;6.38;;;3.58;;
75087;SDS011;63664;44.868;40.600;2023-03-24T08:50:55;4.55;;;2.58;;
75087;SDS011;63664;44.868;40.600;2023-03-24T08:53:22;4.53;;;2.40;;
75087;SDS011;63664;44.868;40.600;2023-03-24T08:55:52;3.35;;;2.28;;
75087;SDS011;63664;44.868;40.600;2023-03-24T08:58:19;3.95;;;2.42;;
75087;SDS011;63664;44.868;40.600;2023-03-24T09:00:47;3.72;;;2.47;;
75087;SDS011;63664;44.868;40.600;2023-03-24T09:03:15;5.53;;;3.20;;
75087;SDS011;63664;44.868;40.600;2023-03-24T09:05:47;5.85;;;3.10;;
75087;SDS011;63664;44.868;40.600;2023-03-24T09:08:17;4.45;;;2.72;;
75087;SDS011;63664;44.868;40.600;2023-03-24T09:10:46;4.13;;;2.85;;
75087;SDS011;63664;44.868;40.600;2023-03-24T09:13:18;4.43;;;2.50;;
75087;SDS011;63664;44.868;40.600;2023-03-24T09:15:46;4.40;;;3.10;;
75087;SDS011;63664;44.868;40.600;2023-03-24T09:18:16;4.78;;;2.92;;
75087;SDS011;63664;44.868;40.600;2023-03-24T09:20:44;5.65;;;2.88;;
75087;SDS011;63664;44.868;40.600;2023-03-24T09:23:12;5.05;;;3.00;;
75087;SDS011;63664;44.868;40.600;2023-03-24T09:25:39;5.93;;;2.50;;
75087;SDS011;63664;44.868;40.600;2023-03-24T09:28:08;4.35;;;2.90;;
75087;SDS011;63664;44.868;40.600;2023-03-24T09:30:34;9.95;;;3.05;;
75087;SDS011;63664;44.868;40.600;2023-03-24T09:33:06;3.25;;;2.25;;
75087;SDS011;63664;44.868;40.600;2023-03-24T09:35:32;4.57;;;2.17;;
75087;SDS011;63664;44.868;40.600;2023-03-24T09:37:59;4.53;;;2.33;;
75087;SDS011;63664;44.868;40.600;2023-03-24T09:40:32;2.75;;;2.00;;
75087;SDS011;63664;44.868;40.600;2023-03-24T09:45:39;3.88;;;2.30;;
75087;SDS011;63664;44.868;40.600;2023-03-24T09:48:19;3.38;;;2.30;;
75087;SDS011;63664;44.868;40.600;2023-03-24T09:51:03;3.90;;;2.30;;
75087;SDS011;63664;44.868;40.600;2023-03-24T09:53:51;7.75;;;2.08;;
75087;SDS011;63664;44.868;40.600;2023-03-24T09:56:28;4.13;;;2.33;;
75087;SDS011;63664;44.868;40.600;2023-03-24T09:59:03;3.17;;;2.30;;
75087;SDS011;63664;44.868;40.600;2023-03-24T10:01:38;3.10;;;2.05;;
75087;SDS011;63664;44.868;40.600;2023-03-24T10:04:12;5.72;;;2.00;;
75087;SDS011;63664;44.868;40.600;2023-03-24T10:06:44;4.32;;;1.92;;
75087;SDS011;63664;44.868;40.600;2023-03-24T10:17:29;4.05;;;2.80;;
75087;SDS011;63664;44.868;40.600;2023-03-24T10:28:34;3.05;;;2.10;;
75087;SDS011;63664;44.868;40.600;2023-03-24T10:31:15;5.15;;;2.22;;
75087;SDS011;63664;44.868;40.600;2023-03-24T10:33:55;3.55;;;2.55;;
75087;SDS011;63664;44.868;40.600;2023-03-24T10:36:24;3.75;;;2.00;;
75087;SDS011;63664;44.868;40.600;2023-03-24T10:38:56;3.83;;;2.20;;
75087;SDS011;63664;44.868;40.600;2023-03-24T10:41:24;2.33;;;1.67;;
75087;SDS011;63664;44.868;40.600;2023-03-24T10:43:55;3.50;;;1.90;;
75087;SDS011;63664;44.868;40.600;2023-03-24T10:46:29;2.78;;;1.67;;
75087;SDS011;63664;44.868;40.600;2023-03-24T10:51:37;3.30;;;2.00;;
75087;SDS011;63664;44.868;40.600;2023-03-24T10:54:17;2.75;;;1.83;;
75087;SDS011;63664;44.868;40.600;2023-03-24T10:56:50;7.10;;;1.60;;
75087;SDS011;63664;44.868;40.600;2023-03-24T10:59:26;2.97;;;1.90;;
75087;SDS011;63664;44.868;40.600;2023-03-24T11:02:17;5.43;;;2.30;;
75087;SDS011;63664;44.868;40.600;2023-03-24T11:07:36;2.50;;;1.63;;
75087;SDS011;63664;44.868;40.600;2023-03-24T11:12:37;6.95;;;2.38;;
75087;SDS011;63664;44.868;40.600;2023-03-24T11:17:58;6.28;;;2.25;;
75087;SDS011;63664;44.868;40.600;2023-03-24T11:20:43;4.70;;;1.83;;
75087;SDS011;63664;44.868;40.600;2023-03-24T11:28:53;9.95;;;1.85;;
75087;SDS011;63664;44.868;40.600;2023-03-24T11:31:39;4.78;;;2.00;;
75087;SDS011;63664;44.868;40.600;2023-03-24T11:36:37;3.97;;;2.03;;
75087;SDS011;63664;44.868;40.600;2023-03-24T11:39:31;4.60;;;2.20;;
75087;SDS011;63664;44.868;40.600;2023-03-24T11:42:00;2.53;;;1.73;;
75087;SDS011;63664;44.868;40.600;2023-03-24T11:44:38;3.50;;;2.00;;
75087;SDS011;63664;44.868;40.600;2023-03-24T11:52:37;4.00;;;1.90;;
75087;SDS011;63664;44.868;40.600;2023-03-24T12:00:55;5.07;;;2.20;;
75087;SDS011;63664;44.868;40.600;2023-03-24T12:03:57;12.80;;;3.35;;
75087;SDS011;63664;44.868;40.600;2023-03-24T12:26:47;10.70;;;2.60;;
75087;SDS011;63664;44.868;40.600;2023-03-24T12:29:36;6.07;;;2.30;;
75087;SDS011;63664;44.868;40.600;2023-03-24T12:37:47;6.75;;;2.40;;
75087;SDS011;63664;44.868;40.600;2023-03-24T12:46:03;4.53;;;2.50;;
75087;SDS011;63664;44.868;40.600;2023-03-24T12:51:49;4.00;;;2.20;;
75087;SDS011;63664;44.868;40.600;2023-03-24T12:54:36;3.55;;;2.17;;
75087;SDS011;63664;44.868;40.600;2023-03-24T12:57:07;4.47;;;2.50;;
75087;SDS011;63664;44.868;40.600;2023-03-24T12:59:47;5.20;;;2.33;;
75087;SDS011;63664;44.868;40.600;2023-03-24T13:02:36;3.72;;;2.30;;
75087;SDS011;63664;44.868;40.600;2023-03-24T13:05:13;4.57;;;2.22;;
75087;SDS011;63664;44.868;40.600;2023-03-24T13:07:45;4.88;;;2.30;;
75087;SDS011;63664;44.868;40.600;2023-03-24T13:12:56;4.13;;;2.50;;
75087;SDS011;63664;44.868;40.600;2023-03-24T13:21:20;6.70;;;2.08;;
75087;SDS011;63664;44.868;40.600;2023-03-24T13:23:54;4.03;;;2.20;;
75087;SDS011;63664;44.868;40.600;2023-03-24T13:34:49;4.47;;;2.40;;
75087;SDS011;63664;44.868;40.600;2023-03-24T13:37:49;4.85;;;2.45;;
75087;SDS011;63664;44.868;40.600;2023-03-24T13:40:20;3.80;;;2.45;;
75087;SDS011;63664;44.868;40.600;2023-03-24T13:42:52;4.63;;;2.30;;
75087;SDS011;63664;44.868;40.600;2023-03-24T13:50:33;5.43;;;2.45;;
75087;SDS011;63664;44.868;40.600;2023-03-24T13:53:06;4.63;;;2.40;;
75087;SDS011;63664;44.868;40.600;2023-03-24T13:55:43;6.13;;;2.70;;
75087;SDS011;63664;44.868;40.600;2023-03-24T13:58:19;3.95;;;2.67;;
75087;SDS011;63664;44.868;40.600;2023-03-24T14:09:28;2.78;;;2.35;;
75087;SDS011;63664;44.868;40.600;2023-03-24T14:17:46;3.90;;;2.58;;
75087;SDS011;63664;44.868;40.600;2023-03-24T14:20:35;7.20;;;2.88;;
75087;SDS011;63664;44.868;40.600;2023-03-24T14:23:06;4.38;;;2.65;;
75087;SDS011;63664;44.868;40.600;2023-03-24T14:26:15;4.55;;;2.60;;
75087;SDS011;63664;44.868;40.600;2023-03-24T14:28:59;3.47;;;2.50;;
75087;SDS011;63664;44.868;40.600;2023-03-24T14:31:32;4.63;;;2.55;;
75087;SDS011;63664;44.868;40.600;2023-03-24T14:34:07;6.35;;;3.20;;
75087;SDS011;63664;44.868;40.600;2023-03-24T14:36:41;5.55;;;2.97;;
75087;SDS011;63664;44.868;40.600;2023-03-24T14:44:56;5.15;;;2.90;;
75087;SDS011;63664;44.868;40.600;2023-03-24T14:47:32;5.45;;;3.17;;
75087;SDS011;63664;44.868;40.600;2023-03-24T14:50:16;7.18;;;2.90;;
75087;SDS011;63664;44.868;40.600;2023-03-24T14:52:58;4.47;;;3.30;;
75087;SDS011;63664;44.868;40.600;2023-03-24T14:55:27;5.32;;;2.97;;
75087;SDS011;63664;44.868;40.600;2023-03-24T14:58:07;5.10;;;2.75;;
75087;SDS011;63664;44.868;40.600;2023-03-24T15:00:54;4.60;;;2.63;;
75087;SDS011;63664;44.868;40.600;2023-03-24T15:06:25;6.30;;;2.40;;
75087;SDS011;63664;44.868;40.600;2023-03-24T15:08:55;5.72;;;2.70;;
75087;SDS011;63664;44.868;40.600;2023-03-24T15:11:27;10.15;;;2.47;;
75087;SDS011;63664;44.868;40.600;2023-03-24T15:13:58;3.42;;;2.13;;
75087;SDS011;63664;44.868;40.600;2023-03-24T15:16:27;4.38;;;3.10;;
75087;SDS011;63664;44.868;40.600;2023-03-24T15:19:16;4.35;;;2.60;;
75087;SDS011;63664;44.868;40.600;2023-03-24T15:21:49;7.30;;;2.50;;
75087;SDS011;63664;44.868;40.600;2023-03-24T15:24:26;4.20;;;2.90;;
75087;SDS011;63664;44.868;40.600;2023-03-24T15:27:12;6.63;;;2.90;;
75087;SDS011;63664;44.868;40.600;2023-03-24T15:29:58;6.82;;;3.50;;
75087;SDS011;63664;44.868;40.600;2023-03-24T15:32:25;4.78;;;2.83;;
75087;SDS011;63664;44.868;40.600;2023-03-24T15:34:59;4.43;;;2.70;;
75087;SDS011;63664;44.868;40.600;2023-03-24T15:37:34;5.10;;;3.10;;
75087;SDS011;63664;44.868;40.600;2023-03-24T15:40:06;6.93;;;3.13;;
75087;SDS011;63664;44.868;40.600;2023-03-24T15:42:57;10.07;;;3.75;;
75087;SDS011;63664;44.868;40.600;2023-03-24T15:45:43;9.57;;;3.30;;
75087;SDS011;63664;44.868;40.600;2023-03-24T15:48:12;12.38;;;4.15;;
75087;SDS011;63664;44.868;40.600;2023-03-24T15:50:53;7.88;;;4.30;;
75087;SDS011;63664;44.868;40.600;2023-03-24T15:53:27;8.88;;;3.25;;
75087;SDS011;63664;44.868;40.600;2023-03-24T16:01:39;6.68;;;3.17;;
75087;SDS011;63664;44.868;40.600;2023-03-24T16:04:10;5.90;;;3.33;;
75087;SDS011;63664;44.868;40.600;2023-03-24T16:06:41;5.80;;;3.40;;
75087;SDS011;63664;44.868;40.600;2023-03-24T16:09:14;5.20;;;3.38;;
75087;SDS011;63664;44.868;40.600;2023-03-24T16:11:47;7.53;;;3.63;;
75087;SDS011;63664;44.868;40.600;2023-03-24T16:14:19;8.40;;;3.20;;
75087;SDS011;63664;44.868;40.600;2023-03-24T16:16:51;9.32;;;3.10;;
75087;SDS011;63664;44.868;40.600;2023-03-24T16:19:22;11.25;;;3.55;;
75087;SDS011;63664;44.868;40.600;2023-03-24T16:21:49;7.32;;;3.28;;
75087;SDS011;63664;44.868;40.600;2023-03-24T16:24:22;7.43;;;3.58;;
75087;SDS011;63664;44.868;40.600;2023-03-24T16:26:51;6.57;;;4.13;;
75087;SDS011;63664;44.868;40.600;2023-03-24T16:29:19;10.73;;;5.00;;
75087;SDS011;63664;44.868;40.600;2023-03-24T16:31:50;10.95;;;4.53;;
75087;SDS011;63664;44.868;40.600;2023-03-24T16:34:18;7.47;;;4.53;;
75087;SDS011;63664;44.868;40.600;2023-03-24T16:36:46;8.75;;;4.60;;
75087;SDS011;63664;44.868;40.600;2023-03-24T16:39:20;11.20;;;5.72;;
75087;SDS011;63664;44.868;40.600;2023-03-24T16:41:48;10.02;;;5.00;;
75087;SDS011;63664;44.868;40.600;2023-03-24T16:44:19;10.05;;;5.35;;
75087;SDS011;63664;44.868;40.600;2023-03-24T16:46:49;9.13;;;5.72;;
75087;SDS011;63664;44.868;40.600;2023-03-24T16:49:20;9.82;;;5.55;;
75087;SDS011;63664;44.868;40.600;2023-03-24T16:51:47;10.95;;;6.05;;
75087;SDS011;63664;44.868;40.600;2023-03-24T16:54:14;13.82;;;6.15;;
75087;SDS011;63664;44.868;40.600;2023-03-24T16:56:44;14.93;;;7.05;;
75087;SDS011;63664;44.868;40.600;2023-03-24T16:59:13;13.93;;;6.32;;
75087;SDS011;63664;44.868;40.600;2023-03-24T17:01:42;24.90;;;9.00;;
75087;SDS011;63664;44.868;40.600;2023-03-24T17:04:14;11.65;;;5.72;;
75087;SDS011;63664;44.868;40.600;2023-03-24T17:06:47;21.48;;;8.65;;
75087;SDS011;63664;44.868;40.600;2023-03-24T17:09:20;19.83;;;9.68;;
75087;SDS011;63664;44.868;40.600;2023-03-24T17:11:47;15.73;;;6.95;;
75087;SDS011;63664;44.868;40.600;2023-03-24T17:14:23;19.13;;;7.13;;
75087;SDS011;63664;44.868;40.600;2023-03-24T17:16:52;16.70;;;9.93;;
75087;SDS011;63664;44.868;40.600;2023-03-24T17:19:21;17.77;;;10.40;;
75087;SDS011;63664;44.868;40.600;2023-03-24T17:22:05;15.48;;;9.10;;
75087;SDS011;63664;44.868;40.600;2023-03-24T17:24:33;18.80;;;8.77;;
75087;SDS011;63664;44.868;40.600;2023-03-24T17:27:08;13.60;;;7.65;;
75087;SDS011;63664;44.868;40.600;2023-03-24T17:29:46;15.23;;;7.20;;
75087;SDS011;63664;44.868;40.600;2023-03-24T17:32:12;11.45;;;6.75;;
75087;SDS011;63664;44.868;40.600;2023-03-24T17:34:40;10.25;;;6.50;;
75087;SDS011;63664;44.868;40.600;2023-03-24T17:37:10;12.57;;;6.68;;
75087;SDS011;63664;44.868;40.600;2023-03-24T17:39:42;12.43;;;6.25;;
75087;SDS011;63664;44.868;40.600;2023-03-24T17:42:08;13.27;;;5.95;;
75087;SDS011;63664;44.868;40.600;2023-03-24T17:44:35;14.57;;;5.85;;
75087;SDS011;63664;44.868;40.600;2023-03-24T17:47:01;15.27;;;6.82;;
75087;SDS011;63664;44.868;40.600;2023-03-24T17:49:28;14.90;;;6.63;;
75087;SDS011;63664;44.868;40.600;2023-03-24T17:52:00;24.15;;;8.15;;
75087;SDS011;63664;44.868;40.600;2023-03-24T17:54:29;14.43;;;7.28;;
75087;SDS011;63664;44.868;40.600;2023-03-24T17:56:57;16.48;;;6.93;;
75087;SDS011;63664;44.868;40.600;2023-03-24T17:59:26;13.55;;;6.75;;
75087;SDS011;63664;44.868;40.600;2023-03-24T18:01:55;12.93;;;6.38;;
75087;SDS011;63664;44.868;40.600;2023-03-24T18:04:26;19.30;;;7.75;;
75087;SDS011;63664;44.868;40.600;2023-03-24T18:06:52;28.05;;;13.27;;
75087;SDS011;63664;44.868;40.600;2023-03-24T18:09:21;19.63;;;9.15;;
75087;SDS011;63664;44.868;40.600;2023-03-24T18:11:48;36.17;;;14.30;;
75087;SDS011;63664;44.868;40.600;2023-03-24T18:14:17;33.70;;;13.68;;
75087;SDS011;63664;44.868;40.600;2023-03-24T18:16:43;29.23;;;13.77;;
75087;SDS011;63664;44.868;40.600;2023-03-24T18:19:10;26.35;;;13.95;;
75087;SDS011;63664;44.868;40.600;2023-03-24T18:21:36;32.20;;;15.18;;
75087;SDS011;63664;44.868;40.600;2023-03-24T18:24:04;31.75;;;14.45;;
75087;SDS011;63664;44.868;40.600;2023-03-24T18:26:31;33.78;;;14.15;;
75087;SDS011;63664;44.868;40.600;2023-03-24T18:29:00;34.75;;;14.27;;
75087;SDS011;63664;44.868;40.600;2023-03-24T18:31:27;28.67;;;14.75;;